Nigde, Turkey

2:39 PM EEST on August 27, 2016 (GMT +0300)
Kapadokya | | Change Station

Elev 3100 ft 38.77 °N, 34.53 °E | Updated 19 minutes ago

Partly Cloudy
Partly Cloudy
90 °F
Feels Like 88 °F
N
6
Wind Variable Wind from Variable

Today
High -- | Low -- °F
--% Chance of Precip.
Yesterday
High -- | Low -- °F
Precip. -- in
Pressure 29.98 in
Visibility 6.2 miles
Clouds Few 4000 ft
Heat Index 88 °F
Dew Point 55 °F
Humidity 31%
Rainfall 0.00 in
Snow Depth Not available.
6:07 AM 7:17 PM
Waning Crescent, 25% visible
METAR LTAZ 271120Z VRB05KT 9999 FEW040 32/13 Q1015 RMK RWY29 VRB05KT
Pressure 29.98 in
Visibility 6.2 miles
Clouds Few 4000 ft
Heat Index 88 °F
Dew Point 55 °F
Humidity 31%
Rainfall 0.00 in
Snow Depth Not available.
6:07 AM 7:17 PM
Waning Crescent, 25% visible
METAR LTAZ 271120Z VRB05KT 9999 FEW040 32/13 Q1015 RMK RWY29 VRB05KT

10-Day Weather Forecast

×

Almanac

Astronomy

Aug. 27, 2016 Rise Set
Actual Time
Civil Twilight
Nautical Twilight
Astronomical Twilight
Moon
Length of Visible Light
Length of Day
Tomorrow will be .
, % of the Moon is Illuminated

Today's Extremes

Country Highs Country Lows

Community

WunderPhotos

Upload Photos

1,935,322 photos uploaded!

WunderBlog® & News

Nearby

Air Quality

  Air Quality AQ Index Pollutant
Not available.

Snow Depth

Station Depth Elevation

Earthquake Activity

City Distance Mag. Time & Date
Minimum magnitude displayed is 2.5.

Coastal Water Temperatures

Place Temperature

Stations

Nearby Weather Stations

Station Location Temp. Windchill Dew Point Humidity Wind Precip. Elev Updated Type